Caninde de Sao Francisco, Brazil
Current Conditions -  °F | °C
As of 5:00 AM on Friday 24 Oct 2014 (Local Time) from SBAR Reporting Station
Scattered Clouds Scattered Clouds  
Wind Chill: 77°   Ceiling: Unl
Heat Index: 79°   Visibility: 6mi
Dew Point: 66°   Wind: 14mph
Humidity: 69%   Direction: 140°SE
Pressure: 29.94"   Gusts: NA
Location:  9.65°S, 37.8°W
Report Text: SBAR 240800Z 14012KT 9999 SCT015 25/19 Q1014
Loading
Personal Weather Stations






























Interactive Weather Map
Tropical Storm Tracking
New forecast layout! Learn more

10-Day Weather Forecast

Advertisements
Track Severe Weather on mobile